sensor_id;sensor_type;location;lat;lon;timestamp;temperature;humidity
22765;DHT22;11549;50.852;3.816;2024-03-25T00:00:11;6.00;99.90
22765;DHT22;11549;50.852;3.816;2024-03-25T00:02:39;6.00;99.90
22765;DHT22;11549;50.852;3.816;2024-03-25T00:05:08;5.90;99.90
22765;DHT22;11549;50.852;3.816;2024-03-25T00:07:35;5.90;99.90
22765;DHT22;11549;50.852;3.816;2024-03-25T00:10:03;5.90;99.90
22765;DHT22;11549;50.852;3.816;2024-03-25T00:12:30;5.90;99.90
22765;DHT22;11549;50.852;3.816;2024-03-25T00:14:57;5.90;99.90
22765;DHT22;11549;50.852;3.816;2024-03-25T00:17:25;5.90;99.90
22765;DHT22;11549;50.852;3.816;2024-03-25T00:19:52;5.90;99.90
22765;DHT22;11549;50.852;3.816;2024-03-25T00:22:19;5.90;99.90
22765;DHT22;11549;50.852;3.816;2024-03-25T00:24:47;5.90;99.90
22765;DHT22;11549;50.852;3.816;2024-03-25T00:27:13;5.90;99.90
22765;DHT22;11549;50.852;3.816;2024-03-25T00:29:41;5.90;99.90
22765;DHT22;11549;50.852;3.816;2024-03-25T00:32:08;5.90;99.90
22765;DHT22;11549;50.852;3.816;2024-03-25T00:34:37;6.00;99.90
22765;DHT22;11549;50.852;3.816;2024-03-25T00:37:04;5.90;99.90
22765;DHT22;11549;50.852;3.816;2024-03-25T00:39:31;5.90;99.90
22765;DHT22;11549;50.852;3.816;2024-03-25T00:41:59;5.90;99.90
22765;DHT22;11549;50.852;3.816;2024-03-25T00:44:26;5.90;99.90
22765;DHT22;11549;50.852;3.816;2024-03-25T00:46:52;5.90;99.90
22765;DHT22;11549;50.852;3.816;2024-03-25T00:49:20;5.90;99.90
22765;DHT22;11549;50.852;3.816;2024-03-25T00:51:48;5.90;99.90
22765;DHT22;11549;50.852;3.816;2024-03-25T00:54:16;5.90;99.90
22765;DHT22;11549;50.852;3.816;2024-03-25T00:56:42;5.80;99.90
22765;DHT22;11549;50.852;3.816;2024-03-25T00:59:10;5.70;99.90
22765;DHT22;11549;50.852;3.816;2024-03-25T01:01:36;5.60;99.90
22765;DHT22;11549;50.852;3.816;2024-03-25T01:04:04;5.50;99.90
22765;DHT22;11549;50.852;3.816;2024-03-25T01:06:30;5.40;99.90
22765;DHT22;11549;50.852;3.816;2024-03-25T01:09:00;5.40;99.90
22765;DHT22;11549;50.852;3.816;2024-03-25T01:11:27;5.40;99.90
22765;DHT22;11549;50.852;3.816;2024-03-25T01:13:54;5.50;99.90
22765;DHT22;11549;50.852;3.816;2024-03-25T01:16:21;5.50;99.90
22765;DHT22;11549;50.852;3.816;2024-03-25T01:18:48;5.50;99.90
22765;DHT22;11549;50.852;3.816;2024-03-25T01:21:15;5.50;99.90
22765;DHT22;11549;50.852;3.816;2024-03-25T01:23:42;5.50;99.90
22765;DHT22;11549;50.852;3.816;2024-03-25T01:26:10;5.60;99.90
22765;DHT22;11549;50.852;3.816;2024-03-25T01:28:37;5.60;99.90
22765;DHT22;11549;50.852;3.816;2024-03-25T01:31:04;5.60;99.90
22765;DHT22;11549;50.852;3.816;2024-03-25T01:33:31;5.50;99.90
22765;DHT22;11549;50.852;3.816;2024-03-25T01:35:57;5.50;99.90
22765;DHT22;11549;50.852;3.816;2024-03-25T01:38:25;5.50;99.90
22765;DHT22;11549;50.852;3.816;2024-03-25T01:40:51;5.40;99.90
22765;DHT22;11549;50.852;3.816;2024-03-25T01:43:20;5.40;99.90
22765;DHT22;11549;50.852;3.816;2024-03-25T01:45:46;5.40;99.90
22765;DHT22;11549;50.852;3.816;2024-03-25T01:48:15;5.50;99.90
22765;DHT22;11549;50.852;3.816;2024-03-25T01:50:43;5.40;99.90
22765;DHT22;11549;50.852;3.816;2024-03-25T01:53:12;5.40;99.90
22765;DHT22;11549;50.852;3.816;2024-03-25T01:55:40;5.50;99.90
22765;DHT22;11549;50.852;3.816;2024-03-25T01:58:07;5.50;99.90
22765;DHT22;11549;50.852;3.816;2024-03-25T02:00:36;5.40;99.90
22765;DHT22;11549;50.852;3.816;2024-03-25T02:03:04;5.50;99.90
22765;DHT22;11549;50.852;3.816;2024-03-25T02:05:32;5.40;99.90
22765;DHT22;11549;50.852;3.816;2024-03-25T02:08:01;5.50;99.90
22765;DHT22;11549;50.852;3.816;2024-03-25T02:10:29;5.50;99.90
22765;DHT22;11549;50.852;3.816;2024-03-25T02:12:56;5.40;99.90
22765;DHT22;11549;50.852;3.816;2024-03-25T02:15:23;5.30;99.90
22765;DHT22;11549;50.852;3.816;2024-03-25T02:17:53;5.30;99.90
22765;DHT22;11549;50.852;3.816;2024-03-25T02:20:20;5.30;99.90
22765;DHT22;11549;50.852;3.816;2024-03-25T02:22:47;5.30;99.90
22765;DHT22;11549;50.852;3.816;2024-03-25T02:25:14;5.30;99.90
22765;DHT22;11549;50.852;3.816;2024-03-25T02:27:44;5.40;99.90
22765;DHT22;11549;50.852;3.816;2024-03-25T02:30:12;5.50;99.90
22765;DHT22;11549;50.852;3.816;2024-03-25T02:32:40;5.60;99.90
22765;DHT22;11549;50.852;3.816;2024-03-25T02:35:09;5.60;99.90
22765;DHT22;11549;50.852;3.816;2024-03-25T02:37:37;5.60;99.90
22765;DHT22;11549;50.852;3.816;2024-03-25T02:40:07;5.50;99.90
22765;DHT22;11549;50.852;3.816;2024-03-25T02:42:35;5.60;99.90
22765;DHT22;11549;50.852;3.816;2024-03-25T02:45:04;5.50;99.90
22765;DHT22;11549;50.852;3.816;2024-03-25T02:47:32;5.50;99.90
22765;DHT22;11549;50.852;3.816;2024-03-25T02:49:58;5.50;99.90
22765;DHT22;11549;50.852;3.816;2024-03-25T02:52:26;5.50;99.90
22765;DHT22;11549;50.852;3.816;2024-03-25T02:54:52;5.50;99.90
22765;DHT22;11549;50.852;3.816;2024-03-25T02:57:21;5.50;99.90
22765;DHT22;11549;50.852;3.816;2024-03-25T02:59:47;5.50;99.90
22765;DHT22;11549;50.852;3.816;2024-03-25T03:02:16;5.40;99.90
22765;DHT22;11549;50.852;3.816;2024-03-25T03:04:42;5.50;99.90
22765;DHT22;11549;50.852;3.816;2024-03-25T03:07:10;5.50;99.90
22765;DHT22;11549;50.852;3.816;2024-03-25T03:09:37;5.40;99.90
22765;DHT22;11549;50.852;3.816;2024-03-25T03:12:05;5.40;99.90
22765;DHT22;11549;50.852;3.816;2024-03-25T03:14:31;5.50;99.90
22765;DHT22;11549;50.852;3.816;2024-03-25T03:16:58;5.60;99.90
22765;DHT22;11549;50.852;3.816;2024-03-25T03:19:26;5.70;99.90
22765;DHT22;11549;50.852;3.816;2024-03-25T03:21:55;5.60;99.90
22765;DHT22;11549;50.852;3.816;2024-03-25T03:24:21;5.60;99.90
22765;DHT22;11549;50.852;3.816;2024-03-25T03:26:48;5.50;99.90
22765;DHT22;11549;50.852;3.816;2024-03-25T03:29:15;5.60;99.90
22765;DHT22;11549;50.852;3.816;2024-03-25T03:31:43;5.50;99.90
22765;DHT22;11549;50.852;3.816;2024-03-25T03:34:10;5.70;99.90
22765;DHT22;11549;50.852;3.816;2024-03-25T03:36:38;5.70;99.90
22765;DHT22;11549;50.852;3.816;2024-03-25T03:39:06;5.80;99.90
22765;DHT22;11549;50.852;3.816;2024-03-25T03:41:35;5.70;99.90
22765;DHT22;11549;50.852;3.816;2024-03-25T03:44:02;5.80;99.90
22765;DHT22;11549;50.852;3.816;2024-03-25T03:46:29;5.70;99.90
22765;DHT22;11549;50.852;3.816;2024-03-25T03:48:56;5.70;99.90
22765;DHT22;11549;50.852;3.816;2024-03-25T03:51:23;5.70;99.90
22765;DHT22;11549;50.852;3.816;2024-03-25T03:53:51;5.80;99.90
22765;DHT22;11549;50.852;3.816;2024-03-25T03:56:19;5.80;99.90
22765;DHT22;11549;50.852;3.816;2024-03-25T03:58:46;5.80;99.90
22765;DHT22;11549;50.852;3.816;2024-03-25T04:01:17;5.90;99.90
22765;DHT22;11549;50.852;3.816;2024-03-25T04:03:43;6.00;99.90
22765;DHT22;11549;50.852;3.816;2024-03-25T04:06:12;6.10;99.90
22765;DHT22;11549;50.852;3.816;2024-03-25T04:08:38;6.00;99.90
22765;DHT22;11549;50.852;3.816;2024-03-25T04:11:08;6.10;99.90
22765;DHT22;11549;50.852;3.816;2024-03-25T04:13:34;6.10;99.90
22765;DHT22;11549;50.852;3.816;2024-03-25T04:16:02;6.10;99.90
22765;DHT22;11549;50.852;3.816;2024-03-25T04:18:30;6.10;99.90
22765;DHT22;11549;50.852;3.816;2024-03-25T04:20:58;6.20;99.90
22765;DHT22;11549;50.852;3.816;2024-03-25T04:23:25;6.20;99.90
22765;DHT22;11549;50.852;3.816;2024-03-25T04:25:52;6.20;99.90
22765;DHT22;11549;50.852;3.816;2024-03-25T04:28:20;6.10;99.90
22765;DHT22;11549;50.852;3.816;2024-03-25T04:30:52;6.10;99.90
22765;DHT22;11549;50.852;3.816;2024-03-25T04:33:18;6.10;99.90
22765;DHT22;11549;50.852;3.816;2024-03-25T04:35:46;6.20;99.90
22765;DHT22;11549;50.852;3.816;2024-03-25T04:38:15;6.20;99.90
22765;DHT22;11549;50.852;3.816;2024-03-25T04:40:42;6.30;99.90
22765;DHT22;11549;50.852;3.816;2024-03-25T04:43:08;6.30;99.90
22765;DHT22;11549;50.852;3.816;2024-03-25T04:45:36;6.40;99.90
22765;DHT22;11549;50.852;3.816;2024-03-25T04:48:03;6.40;99.90
22765;DHT22;11549;50.852;3.816;2024-03-25T04:50:30;6.40;99.90
22765;DHT22;11549;50.852;3.816;2024-03-25T04:52:57;6.50;99.90
22765;DHT22;11549;50.852;3.816;2024-03-25T04:55:23;6.50;99.90
22765;DHT22;11549;50.852;3.816;2024-03-25T04:57:49;6.60;99.90
22765;DHT22;11549;50.852;3.816;2024-03-25T05:00:16;6.70;99.90
22765;DHT22;11549;50.852;3.816;2024-03-25T05:02:44;6.70;99.90
22765;DHT22;11549;50.852;3.816;2024-03-25T05:05:11;6.70;99.90
22765;DHT22;11549;50.852;3.816;2024-03-25T05:07:37;6.70;99.90
22765;DHT22;11549;50.852;3.816;2024-03-25T05:10:04;6.70;99.90
22765;DHT22;11549;50.852;3.816;2024-03-25T05:12:30;6.80;99.90
22765;DHT22;11549;50.852;3.816;2024-03-25T05:14:57;6.80;99.90
22765;DHT22;11549;50.852;3.816;2024-03-25T05:17:23;6.80;99.90
22765;DHT22;11549;50.852;3.816;2024-03-25T05:19:51;6.80;99.90
22765;DHT22;11549;50.852;3.816;2024-03-25T05:22:18;6.70;99.90
22765;DHT22;11549;50.852;3.816;2024-03-25T05:24:44;6.70;99.90
22765;DHT22;11549;50.852;3.816;2024-03-25T05:27:10;6.70;99.90
22765;DHT22;11549;50.852;3.816;2024-03-25T05:29:37;6.60;99.90
22765;DHT22;11549;50.852;3.816;2024-03-25T05:32:04;6.60;99.90
22765;DHT22;11549;50.852;3.816;2024-03-25T05:34:30;6.60;99.90
22765;DHT22;11549;50.852;3.816;2024-03-25T05:36:58;6.70;99.90
22765;DHT22;11549;50.852;3.816;2024-03-25T05:39:24;6.70;99.90
22765;DHT22;11549;50.852;3.816;2024-03-25T05:41:51;6.80;99.90
22765;DHT22;11549;50.852;3.816;2024-03-25T05:44:17;6.90;99.90
22765;DHT22;11549;50.852;3.816;2024-03-25T05:46:44;6.80;99.90
22765;DHT22;11549;50.852;3.816;2024-03-25T05:49:10;6.80;99.90
22765;DHT22;11549;50.852;3.816;2024-03-25T05:51:36;6.80;99.90
22765;DHT22;11549;50.852;3.816;2024-03-25T05:54:04;6.90;99.90
22765;DHT22;11549;50.852;3.816;2024-03-25T05:56:31;6.90;99.90
22765;DHT22;11549;50.852;3.816;2024-03-25T05:58:57;7.10;99.90
22765;DHT22;11549;50.852;3.816;2024-03-25T06:01:24;7.20;99.90
22765;DHT22;11549;50.852;3.816;2024-03-25T06:03:50;7.20;99.90
22765;DHT22;11549;50.852;3.816;2024-03-25T06:06:16;7.10;99.90
22765;DHT22;11549;50.852;3.816;2024-03-25T06:08:43;7.10;99.90
22765;DHT22;11549;50.852;3.816;2024-03-25T06:11:11;7.10;99.90
22765;DHT22;11549;50.852;3.816;2024-03-25T06:13:37;7.00;99.90
22765;DHT22;11549;50.852;3.816;2024-03-25T06:16:04;7.00;99.90
22765;DHT22;11549;50.852;3.816;2024-03-25T06:18:31;7.10;99.90
22765;DHT22;11549;50.852;3.816;2024-03-25T06:20:57;7.10;99.90
22765;DHT22;11549;50.852;3.816;2024-03-25T06:23:24;7.20;99.90
22765;DHT22;11549;50.852;3.816;2024-03-25T06:25:52;7.20;99.90
22765;DHT22;11549;50.852;3.816;2024-03-25T06:28:20;7.30;99.90
22765;DHT22;11549;50.852;3.816;2024-03-25T06:30:47;7.20;99.90
22765;DHT22;11549;50.852;3.816;2024-03-25T06:33:32;7.30;99.90
22765;DHT22;11549;50.852;3.816;2024-03-25T06:36:17;7.30;99.90
22765;DHT22;11549;50.852;3.816;2024-03-25T06:38:44;7.10;99.90
22765;DHT22;11549;50.852;3.816;2024-03-25T06:41:10;7.10;99.90
22765;DHT22;11549;50.852;3.816;2024-03-25T06:43:38;7.20;99.90
22765;DHT22;11549;50.852;3.816;2024-03-25T06:46:05;7.30;99.90
22765;DHT22;11549;50.852;3.816;2024-03-25T06:48:32;7.30;99.90
22765;DHT22;11549;50.852;3.816;2024-03-25T06:50:59;7.30;99.90
22765;DHT22;11549;50.852;3.816;2024-03-25T06:53:25;7.40;99.90
22765;DHT22;11549;50.852;3.816;2024-03-25T06:55:56;7.50;99.90
22765;DHT22;11549;50.852;3.816;2024-03-25T06:58:24;7.50;99.90
22765;DHT22;11549;50.852;3.816;2024-03-25T07:00:52;7.50;99.90
22765;DHT22;11549;50.852;3.816;2024-03-25T07:03:20;7.40;99.90
22765;DHT22;11549;50.852;3.816;2024-03-25T07:05:47;7.40;99.90
22765;DHT22;11549;50.852;3.816;2024-03-25T07:08:14;7.20;99.90
22765;DHT22;11549;50.852;3.816;2024-03-25T07:10:42;7.10;99.90
22765;DHT22;11549;50.852;3.816;2024-03-25T07:13:08;7.20;99.90
22765;DHT22;11549;50.852;3.816;2024-03-25T07:15:35;7.20;99.90
22765;DHT22;11549;50.852;3.816;2024-03-25T07:18:03;7.30;99.90
22765;DHT22;11549;50.852;3.816;2024-03-25T07:20:29;7.40;99.90
22765;DHT22;11549;50.852;3.816;2024-03-25T07:22:56;7.40;99.90
22765;DHT22;11549;50.852;3.816;2024-03-25T07:25:23;7.40;99.90
22765;DHT22;11549;50.852;3.816;2024-03-25T07:27:49;7.40;99.90
22765;DHT22;11549;50.852;3.816;2024-03-25T07:30:16;7.50;99.90
22765;DHT22;11549;50.852;3.816;2024-03-25T07:32:42;7.50;99.90
22765;DHT22;11549;50.852;3.816;2024-03-25T07:35:11;7.40;99.90
22765;DHT22;11549;50.852;3.816;2024-03-25T07:37:38;7.50;99.90
22765;DHT22;11549;50.852;3.816;2024-03-25T07:40:05;7.60;99.90
22765;DHT22;11549;50.852;3.816;2024-03-25T07:42:31;7.60;99.90
22765;DHT22;11549;50.852;3.816;2024-03-25T07:44:58;7.50;99.90
22765;DHT22;11549;50.852;3.816;2024-03-25T07:47:24;7.60;99.90
22765;DHT22;11549;50.852;3.816;2024-03-25T07:49:50;7.80;99.90
22765;DHT22;11549;50.852;3.816;2024-03-25T07:52:18;7.80;99.90
22765;DHT22;11549;50.852;3.816;2024-03-25T07:54:44;7.90;99.90
22765;DHT22;11549;50.852;3.816;2024-03-25T07:57:11;7.90;99.90
22765;DHT22;11549;50.852;3.816;2024-03-25T07:59:37;8.00;99.90
22765;DHT22;11549;50.852;3.816;2024-03-25T08:02:03;8.10;99.90
22765;DHT22;11549;50.852;3.816;2024-03-25T08:04:30;8.20;99.90
22765;DHT22;11549;50.852;3.816;2024-03-25T08:06:56;8.50;99.90
22765;DHT22;11549;50.852;3.816;2024-03-25T08:09:24;8.50;99.90
22765;DHT22;11549;50.852;3.816;2024-03-25T08:11:51;8.80;99.90
22765;DHT22;11549;50.852;3.816;2024-03-25T08:14:19;9.00;99.90
22765;DHT22;11549;50.852;3.816;2024-03-25T08:16:46;9.20;99.90
22765;DHT22;11549;50.852;3.816;2024-03-25T08:19:12;9.30;99.90
22765;DHT22;11549;50.852;3.816;2024-03-25T08:21:39;9.40;99.90
22765;DHT22;11549;50.852;3.816;2024-03-25T08:24:05;9.70;99.90
22765;DHT22;11549;50.852;3.816;2024-03-25T08:26:33;10.00;99.90
22765;DHT22;11549;50.852;3.816;2024-03-25T08:29:00;10.10;99.90
22765;DHT22;11549;50.852;3.816;2024-03-25T08:31:26;10.40;99.90
22765;DHT22;11549;50.852;3.816;2024-03-25T08:33:52;10.60;99.90
22765;DHT22;11549;50.852;3.816;2024-03-25T08:36:19;10.50;99.90
22765;DHT22;11549;50.852;3.816;2024-03-25T08:38:45;10.60;99.90
22765;DHT22;11549;50.852;3.816;2024-03-25T08:41:11;10.80;99.90
22765;DHT22;11549;50.852;3.816;2024-03-25T08:43:39;10.90;99.90
22765;DHT22;11549;50.852;3.816;2024-03-25T08:46:05;11.00;99.90
22765;DHT22;11549;50.852;3.816;2024-03-25T08:48:32;11.20;99.90
22765;DHT22;11549;50.852;3.816;2024-03-25T08:50:58;11.60;99.90
22765;DHT22;11549;50.852;3.816;2024-03-25T08:53:25;11.80;99.90
22765;DHT22;11549;50.852;3.816;2024-03-25T08:55:51;12.10;99.90
22765;DHT22;11549;50.852;3.816;2024-03-25T08:58:17;12.50;99.90
22765;DHT22;11549;50.852;3.816;2024-03-25T09:00:45;12.90;99.90
22765;DHT22;11549;50.852;3.816;2024-03-25T09:03:11;13.30;99.90
22765;DHT22;11549;50.852;3.816;2024-03-25T09:05:38;13.70;99.90
22765;DHT22;11549;50.852;3.816;2024-03-25T09:08:05;13.60;99.90
22765;DHT22;11549;50.852;3.816;2024-03-25T09:10:32;13.50;99.90
22765;DHT22;11549;50.852;3.816;2024-03-25T09:13:17;13.60;99.90
22765;DHT22;11549;50.852;3.816;2024-03-25T09:15:45;13.90;99.90
22765;DHT22;11549;50.852;3.816;2024-03-25T09:18:11;14.00;99.90
22765;DHT22;11549;50.852;3.816;2024-03-25T09:20:37;13.70;99.90
22765;DHT22;11549;50.852;3.816;2024-03-25T09:23:04;13.70;99.90
22765;DHT22;11549;50.852;3.816;2024-03-25T09:25:30;13.80;99.90
22765;DHT22;11549;50.852;3.816;2024-03-25T09:27:57;14.00;99.90
22765;DHT22;11549;50.852;3.816;2024-03-25T09:30:23;14.20;99.90
22765;DHT22;11549;50.852;3.816;2024-03-25T09:32:51;14.30;99.90
22765;DHT22;11549;50.852;3.816;2024-03-25T09:35:17;14.40;99.90
22765;DHT22;11549;50.852;3.816;2024-03-25T09:37:44;14.50;99.90
22765;DHT22;11549;50.852;3.816;2024-03-25T09:40:11;14.50;99.90
22765;DHT22;11549;50.852;3.816;2024-03-25T09:42:48;14.50;99.90
22765;DHT22;11549;50.852;3.816;2024-03-25T09:45:16;14.40;99.90
22765;DHT22;11549;50.852;3.816;2024-03-25T09:47:46;14.00;99.90
22765;DHT22;11549;50.852;3.816;2024-03-25T09:50:14;13.90;99.90
22765;DHT22;11549;50.852;3.816;2024-03-25T09:52:41;13.70;99.90
22765;DHT22;11549;50.852;3.816;2024-03-25T09:55:08;13.80;99.90
22765;DHT22;11549;50.852;3.816;2024-03-25T09:57:34;13.80;99.90
22765;DHT22;11549;50.852;3.816;2024-03-25T10:00:02;13.80;99.90
22765;DHT22;11549;50.852;3.816;2024-03-25T10:02:29;13.90;99.90
22765;DHT22;11549;50.852;3.816;2024-03-25T10:04:56;14.30;99.90
22765;DHT22;11549;50.852;3.816;2024-03-25T10:07:25;14.50;99.90
22765;DHT22;11549;50.852;3.816;2024-03-25T10:09:51;15.00;99.90
22765;DHT22;11549;50.852;3.816;2024-03-25T10:12:18;15.30;99.90
22765;DHT22;11549;50.852;3.816;2024-03-25T10:14:45;15.40;99.90
22765;DHT22;11549;50.852;3.816;2024-03-25T10:17:11;15.60;99.90
22765;DHT22;11549;50.852;3.816;2024-03-25T10:19:37;15.60;99.90
22765;DHT22;11549;50.852;3.816;2024-03-25T10:22:05;15.90;99.90
22765;DHT22;11549;50.852;3.816;2024-03-25T10:24:44;15.50;99.90
22765;DHT22;11549;50.852;3.816;2024-03-25T10:27:17;15.70;99.90
22765;DHT22;11549;50.852;3.816;2024-03-25T10:29:43;15.90;99.90
22765;DHT22;11549;50.852;3.816;2024-03-25T10:32:10;15.90;99.90
22765;DHT22;11549;50.852;3.816;2024-03-25T10:34:36;15.80;99.90
22765;DHT22;11549;50.852;3.816;2024-03-25T10:37:04;15.40;99.90
22765;DHT22;11549;50.852;3.816;2024-03-25T10:39:31;15.30;99.90
22765;DHT22;11549;50.852;3.816;2024-03-25T10:42:01;15.50;99.90
22765;DHT22;11549;50.852;3.816;2024-03-25T10:44:29;15.90;99.90
22765;DHT22;11549;50.852;3.816;2024-03-25T10:47:00;16.10;99.90
22765;DHT22;11549;50.852;3.816;2024-03-25T10:49:33;16.30;99.90
22765;DHT22;11549;50.852;3.816;2024-03-25T10:52:01;16.00;99.90
22765;DHT22;11549;50.852;3.816;2024-03-25T10:54:30;15.70;99.90
22765;DHT22;11549;50.852;3.816;2024-03-25T10:56:59;15.40;99.90
22765;DHT22;11549;50.852;3.816;2024-03-25T10:59:27;15.60;99.90
22765;DHT22;11549;50.852;3.816;2024-03-25T11:01:53;15.70;99.90
22765;DHT22;11549;50.852;3.816;2024-03-25T11:04:20;15.80;99.90
22765;DHT22;11549;50.852;3.816;2024-03-25T11:06:47;15.60;99.90
22765;DHT22;11549;50.852;3.816;2024-03-25T11:09:22;15.70;99.90
22765;DHT22;11549;50.852;3.816;2024-03-25T11:11:50;15.60;99.90
22765;DHT22;11549;50.852;3.816;2024-03-25T11:14:18;15.80;99.90
22765;DHT22;11549;50.852;3.816;2024-03-25T11:16:51;16.00;99.90
22765;DHT22;11549;50.852;3.816;2024-03-25T11:19:18;16.50;99.90
22765;DHT22;11549;50.852;3.816;2024-03-25T11:21:44;16.80;99.90
22765;DHT22;11549;50.852;3.816;2024-03-25T11:24:11;17.00;99.90
22765;DHT22;11549;50.852;3.816;2024-03-25T11:26:41;17.30;99.90
22765;DHT22;11549;50.852;3.816;2024-03-25T11:29:08;17.20;99.90
22765;DHT22;11549;50.852;3.816;2024-03-25T11:31:38;17.40;99.90
22765;DHT22;11549;50.852;3.816;2024-03-25T11:34:05;17.70;99.90
22765;DHT22;11549;50.852;3.816;2024-03-25T11:36:32;17.70;99.90
22765;DHT22;11549;50.852;3.816;2024-03-25T11:38:59;17.10;99.90
22765;DHT22;11549;50.852;3.816;2024-03-25T11:41:26;17.00;99.90
22765;DHT22;11549;50.852;3.816;2024-03-25T11:43:53;16.70;99.90
22765;DHT22;11549;50.852;3.816;2024-03-25T11:46:19;16.40;99.90
22765;DHT22;11549;50.852;3.816;2024-03-25T11:48:47;16.40;99.90
22765;DHT22;11549;50.852;3.816;2024-03-25T11:51:16;15.90;99.90
22765;DHT22;11549;50.852;3.816;2024-03-25T11:53:43;15.70;99.90
22765;DHT22;11549;50.852;3.816;2024-03-25T11:56:11;15.60;99.90
22765;DHT22;11549;50.852;3.816;2024-03-25T11:58:37;15.90;99.90
22765;DHT22;11549;50.852;3.816;2024-03-25T12:01:04;15.80;99.90
22765;DHT22;11549;50.852;3.816;2024-03-25T12:03:33;16.00;99.90
22765;DHT22;11549;50.852;3.816;2024-03-25T12:06:01;15.90;99.90
22765;DHT22;11549;50.852;3.816;2024-03-25T12:08:28;15.80;99.90
22765;DHT22;11549;50.852;3.816;2024-03-25T12:10:54;15.90;99.90
22765;DHT22;11549;50.852;3.816;2024-03-25T12:13:39;15.90;99.80
22765;DHT22;11549;50.852;3.816;2024-03-25T12:16:06;16.10;99.90
22765;DHT22;11549;50.852;3.816;2024-03-25T12:18:33;16.10;98.90
22765;DHT22;11549;50.852;3.816;2024-03-25T12:21:01;15.90;99.90
22765;DHT22;11549;50.852;3.816;2024-03-25T12:23:32;15.60;99.60
22765;DHT22;11549;50.852;3.816;2024-03-25T12:25:59;15.40;99.90
22765;DHT22;11549;50.852;3.816;2024-03-25T12:28:26;15.40;99.90
22765;DHT22;11549;50.852;3.816;2024-03-25T12:30:53;15.20;99.90
22765;DHT22;11549;50.852;3.816;2024-03-25T12:33:21;15.10;99.90
22765;DHT22;11549;50.852;3.816;2024-03-25T12:35:48;14.80;99.90
22765;DHT22;11549;50.852;3.816;2024-03-25T12:38:25;14.50;99.90
22765;DHT22;11549;50.852;3.816;2024-03-25T12:40:53;14.40;99.90
22765;DHT22;11549;50.852;3.816;2024-03-25T12:43:19;14.10;99.90
22765;DHT22;11549;50.852;3.816;2024-03-25T12:45:46;14.00;99.90
22765;DHT22;11549;50.852;3.816;2024-03-25T12:48:13;14.20;99.90
22765;DHT22;11549;50.852;3.816;2024-03-25T12:50:40;14.10;99.90
22765;DHT22;11549;50.852;3.816;2024-03-25T12:53:06;14.20;99.90
22765;DHT22;11549;50.852;3.816;2024-03-25T12:55:34;14.30;99.90
22765;DHT22;11549;50.852;3.816;2024-03-25T12:58:01;14.50;99.90
22765;DHT22;11549;50.852;3.816;2024-03-25T13:00:27;14.30;99.90
22765;DHT22;11549;50.852;3.816;2024-03-25T13:02:54;14.10;99.90
22765;DHT22;11549;50.852;3.816;2024-03-25T13:05:20;13.80;99.90
22765;DHT22;11549;50.852;3.816;2024-03-25T13:07:47;13.20;99.90
22765;DHT22;11549;50.852;3.816;2024-03-25T13:10:13;13.40;99.90
22765;DHT22;11549;50.852;3.816;2024-03-25T13:12:41;13.30;99.90
22765;DHT22;11549;50.852;3.816;2024-03-25T13:15:08;13.50;99.90
22765;DHT22;11549;50.852;3.816;2024-03-25T13:17:34;13.40;99.90
22765;DHT22;11549;50.852;3.816;2024-03-25T13:20:01;13.40;99.90
22765;DHT22;11549;50.852;3.816;2024-03-25T13:22:27;13.60;99.90
22765;DHT22;11549;50.852;3.816;2024-03-25T13:24:54;13.70;99.90
22765;DHT22;11549;50.852;3.816;2024-03-25T13:27:20;13.80;99.90
22765;DHT22;11549;50.852;3.816;2024-03-25T13:29:48;14.00;99.90
22765;DHT22;11549;50.852;3.816;2024-03-25T13:32:15;13.90;98.70
22765;DHT22;11549;50.852;3.816;2024-03-25T13:34:41;14.10;99.70
22765;DHT22;11549;50.852;3.816;2024-03-25T13:37:08;14.10;99.90
22765;DHT22;11549;50.852;3.816;2024-03-25T13:39:34;13.80;99.90
22765;DHT22;11549;50.852;3.816;2024-03-25T13:42:00;13.70;99.90
22765;DHT22;11549;50.852;3.816;2024-03-25T13:44:28;13.50;99.90
22765;DHT22;11549;50.852;3.816;2024-03-25T13:46:55;13.10;99.90
22765;DHT22;11549;50.852;3.816;2024-03-25T13:49:22;13.20;99.90
22765;DHT22;11549;50.852;3.816;2024-03-25T13:51:51;13.30;99.90
22765;DHT22;11549;50.852;3.816;2024-03-25T13:54:22;13.50;99.90
22765;DHT22;11549;50.852;3.816;2024-03-25T13:56:48;13.80;99.90
22765;DHT22;11549;50.852;3.816;2024-03-25T13:59:15;14.00;99.90
22765;DHT22;11549;50.852;3.816;2024-03-25T14:01:44;14.30;99.90
22765;DHT22;11549;50.852;3.816;2024-03-25T14:04:12;14.50;99.90
22765;DHT22;11549;50.852;3.816;2024-03-25T14:06:38;14.40;99.60
22765;DHT22;11549;50.852;3.816;2024-03-25T14:09:05;14.00;99.60
22765;DHT22;11549;50.852;3.816;2024-03-25T14:11:32;14.00;99.90
22765;DHT22;11549;50.852;3.816;2024-03-25T14:13:58;13.80;99.90
22765;DHT22;11549;50.852;3.816;2024-03-25T14:16:25;13.60;99.90
22765;DHT22;11549;50.852;3.816;2024-03-25T14:18:51;13.70;99.90
22765;DHT22;11549;50.852;3.816;2024-03-25T14:21:19;13.80;99.90
22765;DHT22;11549;50.852;3.816;2024-03-25T14:23:45;13.80;99.90
22765;DHT22;11549;50.852;3.816;2024-03-25T14:26:13;13.90;99.90
22765;DHT22;11549;50.852;3.816;2024-03-25T14:28:40;13.90;99.90
22765;DHT22;11549;50.852;3.816;2024-03-25T14:31:07;14.00;99.90
22765;DHT22;11549;50.852;3.816;2024-03-25T14:33:37;13.90;99.90
22765;DHT22;11549;50.852;3.816;2024-03-25T14:36:04;14.00;99.90
22765;DHT22;11549;50.852;3.816;2024-03-25T14:38:32;14.10;99.90
22765;DHT22;11549;50.852;3.816;2024-03-25T14:40:58;14.10;98.60
22765;DHT22;11549;50.852;3.816;2024-03-25T14:43:25;14.10;99.70
22765;DHT22;11549;50.852;3.816;2024-03-25T14:45:52;14.30;99.90
22765;DHT22;11549;50.852;3.816;2024-03-25T14:48:18;14.30;99.90
22765;DHT22;11549;50.852;3.816;2024-03-25T14:50:44;14.20;98.80
22765;DHT22;11549;50.852;3.816;2024-03-25T14:53:11;14.00;99.90
22765;DHT22;11549;50.852;3.816;2024-03-25T14:55:41;13.90;99.90
22765;DHT22;11549;50.852;3.816;2024-03-25T14:58:08;13.80;99.90
22765;DHT22;11549;50.852;3.816;2024-03-25T15:00:34;13.60;99.90
22765;DHT22;11549;50.852;3.816;2024-03-25T15:03:01;13.60;99.90
22765;DHT22;11549;50.852;3.816;2024-03-25T15:05:27;13.60;99.90
22765;DHT22;11549;50.852;3.816;2024-03-25T15:07:54;13.70;99.90
22765;DHT22;11549;50.852;3.816;2024-03-25T15:10:20;13.70;99.90
22765;DHT22;11549;50.852;3.816;2024-03-25T15:12:48;13.60;99.90
22765;DHT22;11549;50.852;3.816;2024-03-25T15:15:15;13.50;99.90
22765;DHT22;11549;50.852;3.816;2024-03-25T15:17:41;13.40;99.90
22765;DHT22;11549;50.852;3.816;2024-03-25T15:20:09;13.40;99.90
22765;DHT22;11549;50.852;3.816;2024-03-25T15:22:35;13.50;99.90
22765;DHT22;11549;50.852;3.816;2024-03-25T15:25:02;13.60;99.90
22765;DHT22;11549;50.852;3.816;2024-03-25T15:27:28;13.40;99.90
22765;DHT22;11549;50.852;3.816;2024-03-25T15:29:56;13.30;99.90
22765;DHT22;11549;50.852;3.816;2024-03-25T15:32:23;13.40;99.90
22765;DHT22;11549;50.852;3.816;2024-03-25T15:34:49;13.40;99.90
22765;DHT22;11549;50.852;3.816;2024-03-25T15:37:16;13.40;99.90
22765;DHT22;11549;50.852;3.816;2024-03-25T15:39:42;13.50;99.90